Time;durP1;ratioP1;P1;durP2;ratioP2;P2;SDS_P1;SDS_P2;PMS_P1;PMS_P2;Temp;Humidity;BMP_temperature;BMP_pressure;BME280_temperature;BME280_humidity;BME280_pressure;Samples;Min_cycle;Max_cycle;Signal;HPM_P1;HPM_P2
2023/12/02 00:00:12;;;;;;;5.60;5.10;;;19.90;41.90;20.70;100785.00;;;;5015911;28;20042;-55
2023/12/02 00:02:38;;;;;;;3.78;3.42;;;19.90;41.90;20.70;100774.00;;;;5015336;28;20507;-55
2023/12/02 00:05:05;;;;;;;6.13;4.57;;;19.90;41.90;20.70;100774.00;;;;5014385;28;20065;-53
2023/12/02 00:07:31;;;;;;;3.72;3.42;;;19.90;41.90;20.70;100777.00;;;;5021505;28;20064;-54
2023/12/02 00:09:57;;;;;;;4.05;3.55;;;19.90;41.80;20.70;100779.00;;;;5013672;28;20061;-53
2023/12/02 00:12:23;;;;;;;3.95;3.53;;;19.90;41.80;20.70;100779.00;;;;5013370;28;20042;-58
2023/12/02 00:14:49;;;;;;;3.67;3.42;;;19.90;41.80;20.70;100776.00;;;;5015082;28;20120;-55
2023/12/02 00:17:15;;;;;;;3.65;3.35;;;19.90;41.80;20.70;100777.00;;;;5014567;28;20033;-57
2023/12/02 00:19:41;;;;;;;3.92;3.63;;;19.90;41.80;20.70;100767.00;;;;5013963;28;20124;-57
2023/12/02 00:22:07;;;;;;;3.65;3.45;;;19.90;41.80;20.70;100776.00;;;;5014370;28;20056;-57
2023/12/02 00:24:33;;;;;;;4.88;3.75;;;19.90;41.80;20.70;100780.00;;;;5014759;28;20052;-45
2023/12/02 00:26:59;;;;;;;5.72;2.88;;;19.90;41.80;20.70;100788.00;;;;4989116;28;20068;-47
2023/12/02 00:29:25;;;;;;;3.58;3.28;;;19.80;41.80;20.70;100785.00;;;;5014929;28;20517;-45
2023/12/02 00:31:51;;;;;;;2.45;2.25;;;19.80;41.90;20.70;100787.00;;;;5005495;28;20037;-45
2023/12/02 00:34:17;;;;;;;3.22;2.92;;;19.80;41.90;20.70;100787.00;;;;5014198;28;20123;-44
2023/12/02 00:36:46;;;;;;;9.63;3.22;;;19.80;41.90;20.70;100786.00;;;;4997610;28;20041;-45
2023/12/02 00:39:12;;;;;;;4.57;3.50;;;19.90;42.00;20.70;100786.00;;;;5015036;28;20026;-45
2023/12/02 00:41:38;;;;;;;3.85;3.22;;;19.80;41.90;20.60;100792.00;;;;5014288;28;20033;-46
2023/12/02 00:44:04;;;;;;;3.30;3.10;;;19.80;41.90;20.70;100794.00;;;;5014317;28;20098;-54
2023/12/02 00:46:30;;;;;;;3.78;3.47;;;19.80;41.90;20.60;100787.00;;;;5004669;28;20120;-52
2023/12/02 00:48:56;;;;;;;4.45;3.55;;;19.80;41.80;20.70;100784.00;;;;5004907;28;20045;-53
2023/12/02 00:51:23;;;;;;;3.53;2.97;;;19.80;41.80;20.60;100782.00;;;;5015497;28;20050;-54
2023/12/02 00:53:48;;;;;;;3.47;3.17;;;19.80;41.90;20.60;100783.00;;;;5013446;28;20045;-53
2023/12/02 00:56:15;;;;;;;3.45;3.25;;;19.80;41.80;20.60;100792.00;;;;5012995;28;20104;-53
2023/12/02 00:58:40;;;;;;;2.95;2.75;;;19.80;41.80;20.60;100782.00;;;;5013473;28;20112;-58
2023/12/02 01:01:07;;;;;;;3.10;2.90;;;19.80;41.70;20.60;100783.00;;;;5014383;28;20064;-55
2023/12/02 01:03:33;;;;;;;3.38;2.55;;;19.80;41.70;20.60;100792.00;;;;5029103;28;20122;-45
2023/12/02 01:05:59;;;;;;;2.75;2.55;;;19.80;41.70;20.60;100787.00;;;;4997371;28;20451;-43
2023/12/02 01:08:25;;;;;;;3.20;3.00;;;19.80;41.70;20.60;100784.00;;;;5014698;28;20089;-46
2023/12/02 01:10:51;;;;;;;3.55;3.25;;;19.80;41.70;20.60;100783.00;;;;5018488;28;20029;-45
2023/12/02 01:13:17;;;;;;;3.28;2.67;;;19.80;41.70;20.60;100790.00;;;;5017297;28;20073;-45
2023/12/02 01:15:43;;;;;;;5.20;3.47;;;19.80;41.70;20.60;100787.00;;;;5000863;28;20148;-45
2023/12/02 01:18:09;;;;;;;2.97;2.83;;;19.70;41.60;20.60;100794.00;;;;5016383;28;20049;-44
2023/12/02 01:20:35;;;;;;;3.28;3.08;;;19.80;41.80;20.60;100804.00;;;;5017143;28;20041;-45
2023/12/02 01:23:01;;;;;;;2.25;2.00;;;19.80;41.70;20.60;100813.00;;;;5017505;28;20053;-55
2023/12/02 01:25:27;;;;;;;3.83;3.53;;;19.80;41.70;20.60;100804.00;;;;5008660;28;21622;-57
2023/12/02 01:27:53;;;;;;;2.78;2.47;;;19.80;41.70;20.60;100804.00;;;;5017519;28;20120;-58
2023/12/02 01:30:19;;;;;;;2.53;2.22;;;19.80;41.70;20.60;100816.00;;;;5016873;28;20106;-59
2023/12/02 01:32:45;;;;;;;2.58;2.38;;;19.70;41.60;20.60;100806.00;;;;5016056;28;20034;-58
2023/12/02 01:35:11;;;;;;;2.25;2.15;;;19.80;41.70;20.50;100812.00;;;;5016620;28;20084;-54
2023/12/02 01:37:37;;;;;;;2.38;2.17;;;19.70;41.60;20.50;100807.00;;;;5017880;28;20033;-53
2023/12/02 01:40:04;;;;;;;2.83;2.40;;;19.70;41.60;20.50;100817.00;;;;5017131;28;20041;-53
2023/12/02 01:42:30;;;;;;;2.42;2.05;;;19.70;41.50;20.50;100813.00;;;;5015673;28;20037;-48
2023/12/02 01:44:57;;;;;;;3.13;2.92;;;19.70;41.40;20.50;100816.00;;;;5017628;28;20391;-45
2023/12/02 01:47:22;;;;;;;1.92;1.80;;;19.70;41.40;20.50;100818.00;;;;5016915;28;20045;-46
2023/12/02 01:49:50;;;;;;;2.95;2.72;;;19.70;41.50;20.50;100826.00;;;;5017423;28;20033;-45
2023/12/02 01:52:17;;;;;;;2.22;2.13;;;19.70;41.40;20.50;100827.00;;;;5015347;28;20050;-44
2023/12/02 01:54:43;;;;;;;1.95;1.85;;;19.70;41.40;20.50;100838.00;;;;5001655;28;20475;-44
2023/12/02 01:57:10;;;;;;;2.75;2.55;;;19.70;41.40;20.50;100835.00;;;;5016838;28;20072;-45
2023/12/02 01:59:44;;;;;;;2.03;1.92;;;19.70;41.40;20.50;100849.00;;;;4982872;28;20076;-45
2023/12/02 02:02:10;;;;;;;2.08;1.95;;;19.70;41.30;20.50;100850.00;;;;5015739;28;20034;-45
2023/12/02 02:04:36;;;;;;;2.08;1.98;;;19.70;41.30;20.50;100862.00;;;;5017282;28;20049;-45
2023/12/02 02:07:02;;;;;;;2.45;2.30;;;19.70;41.30;20.50;100869.00;;;;4999331;28;20041;-45
2023/12/02 02:09:34;;;;;;;2.35;2.25;;;19.70;41.30;20.50;100866.00;;;;5017415;28;20114;-45
2023/12/02 02:12:01;;;;;;;2.38;2.17;;;19.70;41.30;20.50;100867.00;;;;5016061;28;20038;-45
2023/12/02 02:14:27;;;;;;;2.42;2.22;;;19.60;41.20;20.50;100873.00;;;;5015617;28;20046;-45
2023/12/02 02:16:53;;;;;;;4.80;2.58;;;19.60;41.20;20.50;100879.00;;;;5017125;28;20524;-44
2023/12/02 02:19:19;;;;;;;1.63;1.52;;;19.60;41.40;20.50;100883.00;;;;5014037;28;20144;-46
2023/12/02 02:21:49;;;;;;;2.72;2.53;;;19.60;41.30;20.40;100878.00;;;;4998772;28;20158;-45
2023/12/02 02:24:15;;;;;;;2.33;2.20;;;19.60;41.20;20.40;100887.00;;;;5016007;28;20508;-45
2023/12/02 02:26:41;;;;;;;1.67;1.63;;;19.60;41.20;20.40;100891.00;;;;5016203;28;20069;-45
2023/12/02 02:29:07;;;;;;;2.78;2.58;;;19.60;41.20;20.40;100883.00;;;;4989969;28;20368;-45
2023/12/02 02:31:33;;;;;;;4.45;2.90;;;19.60;41.20;20.40;100893.00;;;;5016000;28;20037;-47
2023/12/02 02:33:59;;;;;;;3.05;2.85;;;19.60;41.20;20.40;100888.00;;;;5014329;28;20095;-46
2023/12/02 02:36:25;;;;;;;2.63;2.42;;;19.60;41.10;20.40;100895.00;;;;5015070;28;20809;-45
2023/12/02 02:38:51;;;;;;;2.83;2.63;;;19.60;41.10;20.40;100900.00;;;;5016470;28;20042;-45
2023/12/02 02:41:17;;;;;;;1.98;1.88;;;19.60;41.10;20.40;100901.00;;;;5015459;28;20038;-45
2023/12/02 02:43:43;;;;;;;2.35;2.25;;;19.60;41.10;20.40;100909.00;;;;5016384;28;20494;-57
2023/12/02 02:46:09;;;;;;;2.13;1.92;;;19.60;41.10;20.40;100901.00;;;;5016021;28;20030;-52
2023/12/02 02:48:36;;;;;;;5.38;2.13;;;19.60;41.10;20.40;100906.00;;;;5006503;28;20034;-52
2023/12/02 02:51:02;;;;;;;2.60;2.40;;;19.50;41.10;20.40;100910.00;;;;5007466;28;20073;-54
2023/12/02 02:53:28;;;;;;;5.63;1.88;;;19.60;41.10;20.40;100914.00;;;;5014960;28;20072;-52
2023/12/02 02:55:54;;;;;;;2.70;2.25;;;19.50;41.00;20.40;100915.00;;;;5015328;28;20034;-56
2023/12/02 02:58:20;;;;;;;2.70;2.20;;;19.60;41.00;20.40;100921.00;;;;5016831;28;20107;-53
2023/12/02 03:00:46;;;;;;;2.88;2.17;;;19.50;41.00;20.40;100921.00;;;;5014885;28;20037;-56
2023/12/02 03:03:12;;;;;;;2.58;2.45;;;19.50;41.00;20.40;100920.00;;;;5014404;28;20120;-46
2023/12/02 03:05:38;;;;;;;3.80;2.72;;;19.50;41.00;20.40;100926.00;;;;5015993;28;20037;-45
2023/12/02 03:08:04;;;;;;;2.30;2.10;;;19.50;41.00;20.30;100931.00;;;;5016603;28;20030;-46
2023/12/02 03:10:31;;;;;;;4.32;2.67;;;19.50;40.90;20.30;100924.00;;;;5016223;28;20045;-46
2023/12/02 03:12:57;;;;;;;3.65;3.35;;;19.50;40.90;20.30;100918.00;;;;5015906;28;20041;-47
2023/12/02 03:15:23;;;;;;;2.83;2.63;;;19.50;41.00;20.30;100924.00;;;;5014535;28;20355;-46
2023/12/02 03:17:49;;;;;;;2.80;2.60;;;19.50;41.00;20.30;100919.00;;;;5015457;28;20114;-45
2023/12/02 03:20:15;;;;;;;2.90;2.78;;;19.50;40.90;20.30;100919.00;;;;5030507;28;20095;-46
2023/12/02 03:22:41;;;;;;;3.65;3.33;;;19.50;40.90;20.30;100924.00;;;;5015348;28;20037;-55
2023/12/02 03:25:07;;;;;;;2.70;1.92;;;19.50;40.90;20.30;100929.00;;;;5022399;28;20553;-55
2023/12/02 03:27:33;;;;;;;3.28;3.03;;;19.50;41.00;20.30;100930.00;;;;5015147;28;20025;-55
2023/12/02 03:29:59;;;;;;;3.53;3.03;;;19.40;40.90;20.30;100937.00;;;;5016873;28;20026;-54
2023/12/02 03:32:25;;;;;;;3.72;3.45;;;19.50;41.00;20.30;100937.00;;;;5014528;28;20038;-54
2023/12/02 03:34:51;;;;;;;2.80;2.60;;;19.40;40.90;20.30;100937.00;;;;5015055;28;20044;-52
2023/12/02 03:37:17;;;;;;;3.33;3.13;;;19.40;40.90;20.30;100941.00;;;;5014799;28;20188;-57
2023/12/02 03:39:43;;;;;;;3.35;3.15;;;19.40;40.90;20.30;100939.00;;;;4997977;28;20126;-57
2023/12/02 03:42:09;;;;;;;3.67;3.38;;;19.50;40.90;20.30;100931.00;;;;5006109;28;20057;-53
2023/12/02 03:44:35;;;;;;;3.40;3.10;;;19.40;40.80;20.30;100941.00;;;;5014365;28;20082;-48
2023/12/02 03:47:03;;;;;;;4.35;3.22;;;19.50;40.90;20.30;100945.00;;;;5022483;28;20150;-47
2023/12/02 03:49:29;;;;;;;3.15;2.35;;;19.50;40.90;20.30;100937.00;;;;5015582;28;20057;-46
2023/12/02 03:51:55;;;;;;;3.85;3.47;;;19.40;40.80;20.30;100946.00;;;;5015370;28;20445;-45
2023/12/02 03:54:21;;;;;;;2.55;2.35;;;19.40;40.80;20.30;100958.00;;;;5013615;28;20053;-45
2023/12/02 03:56:47;;;;;;;3.42;3.22;;;19.40;40.80;20.30;100957.00;;;;5016426;28;20079;-45
2023/12/02 03:59:13;;;;;;;3.53;3.33;;;19.40;40.70;20.20;100951.00;;;;5013628;28;20042;-45
2023/12/02 04:01:39;;;;;;;2.92;2.72;;;19.40;40.70;20.20;100952.00;;;;5014910;28;20118;-45
2023/12/02 04:04:05;;;;;;;3.72;3.33;;;19.40;41.40;20.20;100955.00;;;;5015104;28;20091;-47
2023/12/02 04:06:31;;;;;;;3.65;3.33;;;19.40;40.80;20.20;100962.00;;;;5014969;28;20042;-45
2023/12/02 04:08:57;;;;;;;3.15;2.85;;;19.40;40.90;20.20;100957.00;;;;5020731;28;20036;-46
2023/12/02 04:11:23;;;;;;;2.60;2.35;;;19.40;40.80;20.20;100970.00;;;;5014852;28;20068;-45
2023/12/02 04:13:49;;;;;;;3.22;3.03;;;19.40;40.90;20.20;100966.00;;;;5013346;28;20360;-46
2023/12/02 04:16:15;;;;;;;4.05;3.65;;;19.40;40.80;20.20;100969.00;;;;5014355;28;20125;-46
2023/12/02 04:18:41;;;;;;;3.85;3.60;;;19.40;40.80;20.20;100976.00;;;;5014943;28;20049;-46
2023/12/02 04:21:08;;;;;;;3.42;2.83;;;19.40;40.80;20.20;100976.00;;;;5014572;28;20482;-45
2023/12/02 04:23:38;;;;;;;4.03;3.50;;;19.40;40.80;20.20;100977.00;;;;5014481;28;20739;-57
2023/12/02 04:26:06;;;;;;;3.58;3.30;;;19.40;40.70;20.20;100981.00;;;;4964226;28;20095;-61
2023/12/02 04:28:33;;;;;;;3.17;2.83;;;19.30;40.70;20.20;100991.00;;;;5015229;28;20414;-61
2023/12/02 04:30:59;;;;;;;3.78;3.47;;;19.30;40.80;20.10;100994.00;;;;5014698;28;20438;-57
2023/12/02 04:33:25;;;;;;;3.63;3.33;;;19.40;40.70;20.10;100990.00;;;;5037456;28;20040;-57
2023/12/02 04:35:51;;;;;;;4.90;3.17;;;19.40;40.70;20.10;100996.00;;;;5030539;28;20037;-57
2023/12/02 04:38:17;;;;;;;3.70;3.40;;;19.30;40.60;20.10;100994.00;;;;4997324;28;20052;-56
2023/12/02 04:40:43;;;;;;;4.03;3.70;;;19.30;40.70;20.20;101000.00;;;;5013657;28;20119;-56
2023/12/02 04:43:09;;;;;;;3.80;3.10;;;19.30;40.70;20.10;101005.00;;;;5015375;28;20124;-60
2023/12/02 04:45:35;;;;;;;3.65;3.35;;;19.30;40.70;20.10;101007.00;;;;5018150;28;20154;-55
2023/12/02 04:48:01;;;;;;;3.10;2.90;;;19.30;40.70;20.10;101018.00;;;;5018887;28;20092;-59
2023/12/02 04:50:27;;;;;;;4.40;3.42;;;19.30;40.60;20.10;101020.00;;;;5033144;28;20029;-55
2023/12/02 04:52:54;;;;;;;3.53;3.33;;;19.30;40.60;20.10;101024.00;;;;5017896;28;20072;-54
2023/12/02 04:55:20;;;;;;;4.68;4.25;;;19.30;40.50;20.10;101034.00;;;;5016222;28;20037;-57
2023/12/02 04:57:46;;;;;;;4.28;3.88;;;19.30;40.50;20.10;101030.00;;;;5001091;28;20034;-57
2023/12/02 05:00:16;;;;;;;4.10;3.70;;;19.30;40.50;20.10;101034.00;;;;5001611;28;20563;-55
2023/12/02 05:02:43;;;;;;;4.72;4.32;;;19.30;40.50;20.10;101043.00;;;;5017434;28;20100;-54
2023/12/02 05:05:10;;;;;;;6.13;4.18;;;19.30;40.60;20.10;101050.00;;;;5017597;28;20068;-45
2023/12/02 05:07:36;;;;;;;4.53;4.13;;;19.30;40.50;20.10;101047.00;;;;5017543;28;20053;-45
2023/12/02 05:10:04;;;;;;;4.85;4.40;;;19.30;40.50;20.10;101058.00;;;;5001297;28;20030;-45
2023/12/02 05:12:31;;;;;;;4.07;3.78;;;19.30;40.60;20.10;101057.00;;;;5018946;28;20037;-45
2023/12/02 05:14:57;;;;;;;4.43;4.13;;;19.30;40.60;20.10;101072.00;;;;5018689;28;20037;-46
2023/12/02 05:17:23;;;;;;;3.88;3.47;;;19.30;40.60;20.10;101075.00;;;;5017648;28;20026;-45
2023/12/02 05:19:49;;;;;;;4.15;3.85;;;19.30;40.60;20.10;101084.00;;;;5001110;28;20041;-45
2023/12/02 05:22:15;;;;;;;5.35;4.80;;;19.20;40.50;20.10;101078.00;;;;5016694;28;20030;-45
2023/12/02 05:24:41;;;;;;;5.05;3.60;;;19.20;40.40;20.00;101081.00;;;;5017955;28;20580;-45
2023/12/02 05:27:08;;;;;;;4.88;4.22;;;19.20;40.50;20.00;101075.00;;;;5018367;28;20164;-45
2023/12/02 05:29:34;;;;;;;4.32;4.03;;;19.20;40.40;20.00;101079.00;;;;5016948;28;20501;-45
2023/12/02 05:32:01;;;;;;;5.47;4.18;;;19.20;40.50;20.00;101080.00;;;;5019102;28;20516;-45
2023/12/02 05:34:27;;;;;;;4.03;3.72;;;19.20;40.50;20.00;101083.00;;;;5017050;28;20069;-45
2023/12/02 05:36:53;;;;;;;4.85;3.83;;;19.20;40.50;20.00;101086.00;;;;5016314;28;20509;-46
2023/12/02 05:39:19;;;;;;;5.45;4.50;;;19.20;40.50;20.00;101091.00;;;;5017749;28;20510;-45
2023/12/02 05:41:45;;;;;;;4.35;4.00;;;19.20;40.50;20.00;101099.00;;;;5016401;28;20077;-45
2023/12/02 05:44:11;;;;;;;5.60;5.10;;;19.20;40.40;20.00;101106.00;;;;5018914;28;20549;-45
2023/12/02 05:46:37;;;;;;;4.82;4.43;;;19.20;40.50;20.00;101114.00;;;;5017487;28;20044;-45
2023/12/02 05:49:03;;;;;;;4.15;3.75;;;19.20;40.40;20.00;101115.00;;;;5015763;28;20038;-46
2023/12/02 05:51:29;;;;;;;6.03;5.47;;;19.20;40.40;20.00;101116.00;;;;5015594;28;20021;-46
2023/12/02 05:53:55;;;;;;;5.63;4.70;;;19.20;40.40;20.00;101123.00;;;;5016602;28;20100;-45
2023/12/02 05:56:21;;;;;;;6.95;4.30;;;19.20;40.40;20.00;101128.00;;;;4983482;28;20176;-46
2023/12/02 05:58:50;;;;;;;5.15;4.28;;;19.20;40.40;20.00;101131.00;;;;5016276;28;20041;-45
2023/12/02 06:01:21;;;;;;;5.63;4.88;;;19.20;40.40;20.00;101149.00;;;;5016071;28;20069;-46
2023/12/02 06:03:49;;;;;;;6.15;4.65;;;19.20;40.40;20.00;101140.00;;;;5017010;28;20120;-46
2023/12/02 06:06:16;;;;;;;4.80;4.28;;;19.20;40.30;20.00;101147.00;;;;5015878;28;20121;-45
2023/12/02 06:08:42;;;;;;;5.20;4.47;;;19.10;40.30;20.00;101154.00;;;;4999126;28;20513;-46
2023/12/02 06:11:08;;;;;;;6.40;5.80;;;19.10;40.30;20.00;101152.00;;;;5017004;28;20041;-45
2023/12/02 06:13:34;;;;;;;5.07;3.83;;;19.10;40.30;19.90;101161.00;;;;5014783;28;20033;-45
2023/12/02 06:16:00;;;;;;;5.43;4.70;;;19.10;40.30;19.90;101168.00;;;;5016148;28;20055;-46
2023/12/02 06:18:27;;;;;;;5.07;4.30;;;19.10;40.30;19.90;101168.00;;;;5023434;28;20834;-46
2023/12/02 06:20:54;;;;;;;5.65;4.47;;;19.10;40.30;19.90;101178.00;;;;5014387;28;20021;-47
2023/12/02 06:23:20;;;;;;;5.25;4.53;;;19.10;40.30;19.90;101181.00;;;;5015366;28;20045;-45
2023/12/02 06:25:46;;;;;;;5.95;5.45;;;19.10;40.20;19.90;101183.00;;;;4998398;28;20548;-45
2023/12/02 06:28:12;;;;;;;4.43;4.13;;;19.10;40.30;19.90;101182.00;;;;5016135;28;20506;-47
2023/12/02 06:30:38;;;;;;;5.72;5.22;;;19.00;40.20;19.90;101179.00;;;;5014838;28;20034;-47
2023/12/02 06:33:04;;;;;;;6.20;5.60;;;19.00;40.20;19.90;101188.00;;;;4999360;28;20030;-44
2023/12/02 06:35:29;;;;;;;5.03;4.53;;;19.10;40.80;19.90;101185.00;;;;5016260;28;20045;-47
2023/12/02 06:37:55;;;;;;;6.38;5.05;;;19.10;40.30;19.90;101196.00;;;;5014477;28;20045;-45
2023/12/02 06:40:21;;;;;;;6.50;5.90;;;19.10;40.20;19.90;101203.00;;;;5015009;28;20044;-45
2023/12/02 06:42:47;;;;;;;6.30;5.30;;;19.10;40.20;19.90;101204.00;;;;5016151;28;20040;-47
2023/12/02 06:45:13;;;;;;;6.60;5.38;;;19.10;40.80;19.90;101205.00;;;;5007184;28;20037;-45
2023/12/02 06:47:39;;;;;;;5.53;5.03;;;19.00;40.10;19.90;101211.00;;;;5016616;28;20135;-45
2023/12/02 06:50:07;;;;;;;5.25;4.75;;;19.00;40.10;19.90;101208.00;;;;5016138;28;20042;-45
2023/12/02 06:52:33;;;;;;;6.82;5.10;;;19.00;40.10;19.90;101215.00;;;;5015696;28;20101;-46
2023/12/02 06:54:59;;;;;;;5.65;5.10;;;19.10;40.20;19.90;101215.00;;;;5017106;28;20029;-45
2023/12/02 06:57:25;;;;;;;8.60;4.97;;;19.00;40.20;19.90;101219.00;;;;5016866;28;20041;-45
2023/12/02 06:59:54;;;;;;;5.80;4.93;;;19.00;40.20;19.90;101221.00;;;;5015501;28;20041;-45
2023/12/02 07:02:20;;;;;;;7.00;5.57;;;19.00;40.20;19.90;101218.00;;;;5014735;28;20041;-45
2023/12/02 07:04:46;;;;;;;7.30;5.82;;;19.00;40.20;19.90;101228.00;;;;5016002;28;20037;-54
2023/12/02 07:07:12;;;;;;;8.15;5.88;;;19.00;40.20;19.90;101228.00;;;;5015464;28;20033;-55
2023/12/02 07:09:38;;;;;;;6.25;5.45;;;19.00;40.20;19.90;101240.00;;;;5023400;28;20503;-56
2023/12/02 07:12:05;;;;;;;6.20;5.40;;;19.00;40.20;19.90;101237.00;;;;5014852;28;20040;-55
2023/12/02 07:14:31;;;;;;;7.70;5.20;;;19.00;40.20;19.90;101252.00;;;;5017125;28;20041;-56
2023/12/02 07:16:57;;;;;;;7.93;6.07;;;19.00;40.20;19.90;101256.00;;;;5017072;28;20033;-53
2023/12/02 07:19:23;;;;;;;9.13;6.68;;;19.00;40.20;19.90;101261.00;;;;5016874;28;20088;-57
2023/12/02 07:21:50;;;;;;;8.32;6.07;;;19.00;40.20;19.90;101263.00;;;;4983295;28;20097;-53
2023/12/02 07:24:16;;;;;;;11.65;7.45;;;19.00;40.20;19.90;101258.00;;;;5016665;28;20033;-55
2023/12/02 07:26:42;;;;;;;9.65;6.30;;;19.00;40.20;19.90;101261.00;;;;5018343;28;20041;-52
2023/12/02 07:29:09;;;;;;;9.73;6.63;;;19.00;40.20;19.80;101268.00;;;;5006234;28;20112;-53
2023/12/02 07:31:36;;;;;;;9.57;6.22;;;19.00;40.30;19.80;101273.00;;;;4999509;28;20475;-55
2023/12/02 07:34:02;;;;;;;6.72;5.75;;;19.00;40.30;19.90;101274.00;;;;4981816;28;20073;-52
2023/12/02 07:36:28;;;;;;;9.55;6.95;;;19.00;40.30;19.90;101274.00;;;;5016317;28;20102;-50
2023/12/02 07:38:54;;;;;;;9.98;6.43;;;19.00;40.30;19.90;101280.00;;;;4996473;28;20033;-55
2023/12/02 07:41:20;;;;;;;6.80;5.60;;;19.00;40.30;19.90;101291.00;;;;5014842;28;20045;-57
2023/12/02 07:43:46;;;;;;;9.80;8.07;;;19.00;40.40;19.90;101286.00;;;;5014799;28;20472;-67
2023/12/02 07:46:12;;;;;;;9.15;6.70;;;19.00;40.40;20.00;101290.00;;;;5015655;28;20105;-67
2023/12/02 07:48:38;;;;;;;9.82;7.18;;;19.00;40.40;20.00;101287.00;;;;5015964;28;20066;-53
2023/12/02 07:51:05;;;;;;;6.68;5.93;;;19.00;40.50;20.10;101286.00;;;;5015814;28;20095;-54
2023/12/02 07:53:31;;;;;;;6.43;4.82;;;19.10;40.50;20.10;101290.00;;;;5014917;28;20055;-54
2023/12/02 07:55:57;;;;;;;7.22;6.53;;;19.10;40.40;20.20;101293.00;;;;5014717;28;20107;-53
2023/12/02 07:58:23;;;;;;;8.52;6.43;;;19.10;40.40;20.20;101301.00;;;;5016816;28;20762;-52
2023/12/02 08:00:49;;;;;;;7.60;6.20;;;19.10;40.40;20.30;101301.00;;;;5015301;28;20486;-53
2023/12/02 08:03:15;;;;;;;9.30;7.15;;;19.20;40.40;20.30;101300.00;;;;5015442;28;20035;-55
2023/12/02 08:05:41;;;;;;;9.32;7.65;;;19.20;40.30;20.30;101309.00;;;;5012429;28;20348;-54
2023/12/02 08:08:07;;;;;;;11.40;7.55;;;19.30;40.30;20.40;101318.00;;;;5015506;28;20117;-57
2023/12/02 08:10:33;;;;;;;11.35;7.55;;;19.30;40.20;20.50;101320.00;;;;5016435;28;20120;-56
2023/12/02 08:12:59;;;;;;;7.95;6.95;;;19.40;40.10;20.50;101320.00;;;;5015477;28;20038;-53
2023/12/02 08:15:25;;;;;;;10.80;8.38;;;19.40;40.00;20.60;101322.00;;;;5015126;28;20044;-51
2023/12/02 08:17:51;;;;;;;11.70;8.18;;;19.50;40.00;20.60;101327.00;;;;4999531;28;20136;-55
2023/12/02 08:20:18;;;;;;;10.85;7.85;;;19.50;39.80;20.60;101335.00;;;;5017118;28;20033;-54
2023/12/02 08:22:44;;;;;;;9.25;6.47;;;19.60;39.70;20.70;101336.00;;;;5014152;28;20034;-52
2023/12/02 08:25:10;;;;;;;10.40;8.27;;;19.60;39.70;20.70;101347.00;;;;5015378;28;20045;-53
2023/12/02 08:27:36;;;;;;;8.43;6.60;;;19.70;39.70;20.80;101342.00;;;;5014354;28;20034;-51
2023/12/02 08:30:05;;;;;;;11.52;7.55;;;19.80;39.70;20.80;101352.00;;;;5015135;28;20033;-52
2023/12/02 08:32:31;;;;;;;7.35;6.65;;;19.80;39.50;20.90;101360.00;;;;5013990;28;20034;-50
2023/12/02 08:34:57;;;;;;;8.23;7.30;;;19.80;39.40;20.90;101357.00;;;;5013294;28;20037;-54
2023/12/02 08:37:23;;;;;;;8.93;7.75;;;19.90;39.40;20.90;101366.00;;;;5015505;28;20037;-52
2023/12/02 08:39:49;;;;;;;8.18;6.20;;;19.90;39.20;20.90;101368.00;;;;5015180;28;20056;-51
2023/12/02 08:42:15;;;;;;;9.68;7.03;;;20.00;39.20;21.00;101373.00;;;;4972266;28;20057;-53
2023/12/02 08:44:41;;;;;;;8.23;6.60;;;20.00;39.10;21.00;101373.00;;;;5015010;28;20037;-43
2023/12/02 08:47:07;;;;;;;8.90;8.02;;;20.00;39.10;21.00;101374.00;;;;5014768;28;20104;-43
2023/12/02 08:49:33;;;;;;;9.63;7.60;;;20.10;39.10;21.00;101377.00;;;;5013618;28;20026;-43
2023/12/02 08:51:59;;;;;;;8.85;7.05;;;20.10;39.10;21.10;101385.00;;;;5014300;28;20030;-43
2023/12/02 08:54:25;;;;;;;10.32;7.63;;;20.10;39.10;21.10;101388.00;;;;5016402;28;20467;-43
2023/12/02 08:56:51;;;;;;;12.32;7.75;;;20.10;39.40;21.10;101386.00;;;;4989206;28;20095;-43
2023/12/02 08:59:17;;;;;;;15.85;8.07;;;20.20;40.30;21.10;101400.00;;;;5015126;28;20042;-44
2023/12/02 09:01:43;;;;;;;14.57;8.32;;;20.20;40.50;21.20;101412.00;;;;5015299;28;20496;-41
2023/12/02 09:04:09;;;;;;;14.55;8.98;;;20.30;40.90;21.20;101401.00;;;;5014814;28;20049;-42
2023/12/02 09:06:37;;;;;;;29.17;8.40;;;20.20;41.30;21.20;101415.00;;;;4988676;28;20155;-43
2023/12/02 09:09:03;;;;;;;11.82;8.20;;;20.30;41.80;21.30;101418.00;;;;5004644;28;20037;-43
2023/12/02 09:11:29;;;;;;;13.25;8.63;;;20.30;42.10;21.30;101413.00;;;;5014117;28;20045;-43
2023/12/02 09:13:55;;;;;;;17.35;8.73;;;20.40;42.30;21.30;101415.00;;;;5016178;28;20096;-42
2023/12/02 09:16:25;;;;;;;13.38;7.50;;;20.40;42.40;21.30;101421.00;;;;4997027;28;20037;-42
2023/12/02 09:18:51;;;;;;;15.13;7.82;;;20.40;42.50;21.30;101423.00;;;;5015537;28;20084;-42
2023/12/02 09:21:38;;;;;;;13.13;7.65;;;20.40;42.50;21.40;101432.00;;;;5013980;28;20061;-43
2023/12/02 09:24:34;;;;;;;11.02;7.55;;;20.50;42.60;21.40;101431.00;;;;5014903;28;20050;-42
2023/12/02 09:27:05;;;;;;;16.60;7.88;;;20.50;42.60;21.40;101431.00;;;;5015063;28;20041;-42
2023/12/02 09:29:41;;;;;;;18.08;7.53;;;20.50;43.00;21.40;101437.00;;;;5022459;28;20030;-42
2023/12/02 09:32:22;;;;;;;11.18;8.52;;;20.50;43.10;21.40;101442.00;;;;5016609;28;20159;-42
2023/12/02 09:34:59;;;;;;;11.13;8.70;;;20.50;43.00;21.50;101443.00;;;;5040855;28;20041;-42
2023/12/02 09:37:56;;;;;;;12.88;8.52;;;20.60;43.10;21.50;101449.00;;;;5019672;28;20077;-42
2023/12/02 09:40:23;;;;;;;;;;;20.60;43.10;21.50;101452.00;;;;5018963;28;20470;-42
2023/12/02 09:43:13;;;;;;;;;;;20.60;42.60;21.50;101458.00;;;;5019405;28;20394;-42
2023/12/02 09:46:32;;;;;;;13.23;7.95;;;20.60;42.50;21.50;101449.00;;;;5017700;28;19921;-42
2023/12/02 09:49:44;;;;;;;9.73;7.32;;;20.60;43.00;21.60;101453.00;;;;4999612;28;20116;-42
2023/12/02 09:52:58;;;;;;;10.30;5.40;;;20.60;43.10;21.60;101453.00;;;;5016040;28;20042;-43
2023/12/02 09:55:48;;;;;;;8.45;5.35;;;20.70;43.00;21.60;101453.00;;;;4957311;28;20205;-42
2023/12/02 09:58:25;;;;;;;5.72;5.18;;;20.70;42.90;21.70;101456.00;;;;4934402;28;20074;-42
2023/12/02 10:01:11;;;;;;;5.22;4.03;;;20.70;42.90;21.70;101451.00;;;;4957540;28;20047;-42
2023/12/02 10:04:18;;;;;;;4.72;3.60;;;20.80;43.50;21.70;101460.00;;;;4955990;28;20051;-66
2023/12/02 10:07:02;;;;;;;;;;;20.80;42.80;21.60;101470.00;;;;4957848;28;20507;-60
2023/12/02 10:09:49;;;;;;;5.68;4.85;;;20.80;42.40;21.50;101463.00;;;;4969599;28;19918;-57
2023/12/02 10:12:54;;;;;;;6.20;5.25;;;20.70;42.60;21.40;101458.00;;;;4965366;28;20561;-53
2023/12/02 10:15:23;;;;;;;7.10;5.45;;;20.60;42.40;21.30;101474.00;;;;4954675;28;20571;-55
2023/12/02 10:17:55;;;;;;;6.95;5.15;;;20.60;42.40;21.20;101471.00;;;;4955148;28;20058;-55
2023/12/02 10:20:28;;;;;;;7.35;5.32;;;20.50;42.40;21.20;101473.00;;;;4971379;28;20514;-54
2023/12/02 10:23:15;;;;;;;7.15;5.78;;;20.40;42.50;21.10;101472.00;;;;4954958;28;20109;-57
2023/12/02 10:26:01;;;;;;;8.15;5.45;;;20.40;42.50;21.10;101466.00;;;;4957435;28;20049;-56
2023/12/02 10:29:13;;;;;;;11.93;5.25;;;20.30;42.50;21.00;101477.00;;;;5024699;28;20702;-54
2023/12/02 10:32:22;;;;;;;9.30;5.75;;;20.30;42.70;21.00;101479.00;;;;5025001;28;20044;-58
2023/12/02 10:35:10;;;;;;;10.70;6.00;;;20.20;42.70;20.90;101475.00;;;;5024107;28;20040;-56
2023/12/02 10:37:40;;;;;;;7.53;5.32;;;20.20;42.70;20.90;101475.00;;;;5019814;28;20075;-56
2023/12/02 10:40:13;;;;;;;8.65;5.43;;;20.20;42.70;20.90;101481.00;;;;5014063;28;20057;-59
2023/12/02 10:43:12;;;;;;;7.10;5.80;;;20.10;42.50;20.90;101480.00;;;;5013943;28;20060;-56
2023/12/02 10:45:41;;;;;;;7.55;5.45;;;20.10;42.60;20.90;101485.00;;;;5030817;28;20113;-44
2023/12/02 10:48:12;;;;;;;7.55;6.60;;;20.10;42.50;20.90;101494.00;;;;5031152;28;20045;-44
2023/12/02 10:50:39;;;;;;;7.45;6.55;;;20.10;42.50;20.90;101486.00;;;;5031076;28;20554;-44
2023/12/02 10:53:06;;;;;;;5.32;4.80;;;20.00;42.40;20.90;101480.00;;;;5029997;28;20112;-44